createdAt,value
2023-06-09T00:02:19.835Z,16.74
2023-06-09T00:04:49.450Z,16.76
2023-06-09T00:07:17.861Z,16.76
2023-06-09T00:09:45.880Z,16.78
2023-06-09T00:12:13.925Z,16.76
2023-06-09T00:14:43.120Z,16.72
2023-06-09T00:17:11.329Z,16.68
2023-06-09T00:19:43.363Z,16.63
2023-06-09T00:22:15.349Z,16.58
2023-06-09T00:24:45.200Z,16.56
2023-06-09T00:27:13.423Z,16.51
2023-06-09T00:29:41.506Z,16.44
2023-06-09T00:32:10.085Z,16.38
2023-06-09T00:34:38.843Z,16.35
2023-06-09T00:37:06.982Z,16.30
2023-06-09T00:39:34.997Z,16.25
2023-06-09T00:42:03.033Z,16.17
2023-06-09T00:44:31.063Z,16.11
2023-06-09T00:46:59.192Z,16.04
2023-06-09T00:49:27.420Z,15.98
2023-06-09T00:51:55.434Z,15.92
2023-06-09T00:54:23.504Z,15.87
2023-06-09T00:56:51.560Z,15.82
2023-06-09T00:59:19.706Z,15.80
2023-06-09T01:01:48.272Z,15.75
2023-06-09T01:04:16.206Z,15.72
2023-06-09T01:07:03.204Z,15.69
2023-06-09T01:09:36.033Z,15.64
2023-06-09T01:12:17.076Z,15.60
2023-06-09T01:15:07.274Z,15.52
2023-06-09T01:17:35.981Z,15.42
2023-06-09T01:20:05.120Z,15.33
2023-06-09T01:22:52.010Z,15.23
2023-06-09T01:25:36.082Z,15.15
2023-06-09T01:28:24.450Z,15.09
2023-06-09T01:30:53.133Z,15.02
2023-06-09T01:33:24.327Z,14.94
2023-06-09T01:35:53.395Z,14.88
2023-06-09T01:38:23.112Z,14.81
2023-06-09T01:40:51.137Z,14.75
2023-06-09T01:43:20.210Z,14.66
2023-06-09T01:45:48.456Z,14.57
2023-06-09T01:48:18.975Z,14.49
2023-06-09T01:50:55.424Z,14.43
2023-06-09T01:53:43.067Z,14.39
2023-06-09T01:56:28.996Z,14.34
2023-06-09T01:58:58.928Z,14.29
2023-06-09T02:01:27.413Z,14.24
2023-06-09T02:03:56.038Z,14.22
2023-06-09T02:06:24.164Z,14.20
2023-06-09T02:08:52.318Z,14.17
2023-06-09T02:11:20.740Z,14.16
2023-06-09T02:13:55.683Z,14.15
2023-06-09T02:16:24.046Z,14.12
2023-06-09T02:18:53.534Z,14.08
2023-06-09T02:21:21.713Z,14.04
2023-06-09T02:23:49.853Z,14.02
2023-06-09T02:26:18.571Z,14.00
2023-06-09T02:28:48.659Z,13.97
2023-06-09T02:31:17.295Z,13.94
2023-06-09T02:33:45.471Z,13.92
2023-06-09T02:36:16.854Z,13.94
2023-06-09T02:38:44.900Z,13.94
2023-06-09T02:41:13.221Z,13.90
2023-06-09T02:43:41.241Z,13.91
2023-06-09T02:46:10.497Z,13.93
2023-06-09T02:48:38.813Z,13.97
2023-06-09T02:51:08.086Z,13.97
2023-06-09T02:53:36.216Z,13.96
2023-06-09T02:56:04.821Z,13.95
2023-06-09T02:58:36.189Z,13.95
2023-06-09T03:01:04.253Z,13.99
2023-06-09T03:03:32.430Z,14.06
2023-06-09T03:06:00.580Z,14.15
2023-06-09T03:08:29.553Z,14.23
2023-06-09T03:10:57.624Z,14.33
2023-06-09T03:13:25.806Z,14.43
2023-06-09T03:15:54.650Z,14.51
2023-06-09T03:18:23.155Z,14.60
2023-06-09T03:20:52.110Z,14.68
2023-06-09T03:23:22.103Z,14.77
2023-06-09T03:25:53.952Z,14.91
2023-06-09T03:28:23.816Z,15.03
2023-06-09T03:30:51.899Z,15.18
2023-06-09T03:33:20.771Z,15.31
2023-06-09T03:35:50.261Z,15.40
2023-06-09T03:38:19.176Z,15.52
2023-06-09T03:40:47.277Z,15.66
2023-06-09T03:43:15.649Z,15.78
2023-06-09T03:45:43.790Z,15.91
2023-06-09T03:48:13.115Z,16.04
2023-06-09T03:50:41.839Z,16.16
2023-06-09T03:53:11.085Z,16.30
2023-06-09T03:55:40.584Z,16.40
2023-06-09T03:58:11.419Z,16.49
2023-06-09T04:00:40.373Z,16.53
2023-06-09T04:03:08.951Z,16.58
2023-06-09T04:05:37.295Z,16.67
2023-06-09T04:08:05.898Z,16.77
2023-06-09T04:10:33.900Z,16.90
2023-06-09T04:13:01.973Z,17.04
2023-06-09T04:15:31.017Z,17.19
2023-06-09T04:17:59.350Z,17.37
2023-06-09T04:20:30.992Z,17.58
2023-06-09T04:22:59.283Z,18.30
2023-06-09T04:25:30.081Z,19.69
2023-06-09T04:28:04.533Z,21.07
2023-06-09T04:30:35.791Z,22.24
2023-06-09T04:33:08.920Z,23.09
2023-06-09T04:35:37.437Z,23.79
2023-06-09T04:38:06.125Z,24.45
2023-06-09T04:40:34.624Z,25.00
2023-06-09T04:43:03.746Z,25.41
2023-06-09T04:45:36.930Z,25.84
2023-06-09T04:48:23.427Z,26.41
2023-06-09T04:50:51.491Z,26.82
2023-06-09T04:53:21.146Z,27.39
2023-06-09T04:55:55.342Z,27.85
2023-06-09T04:58:25.098Z,28.32
2023-06-09T05:00:54.516Z,28.97
2023-06-09T05:03:24.872Z,29.61
2023-06-09T05:05:53.685Z,30.01
2023-06-09T05:08:22.800Z,29.75
2023-06-09T05:10:51.277Z,29.24
2023-06-09T05:13:19.891Z,29.35
2023-06-09T05:15:48.591Z,28.80
2023-06-09T05:18:19.080Z,28.70
2023-06-09T05:20:47.700Z,29.18
2023-06-09T05:23:18.983Z,29.67
2023-06-09T05:25:47.281Z,30.09
2023-06-09T05:28:15.678Z,30.54
2023-06-09T05:30:43.686Z,30.94
2023-06-09T05:33:12.168Z,31.24
2023-06-09T05:35:40.310Z,31.05
2023-06-09T05:38:09.057Z,31.15
2023-06-09T05:40:37.075Z,31.35
2023-06-09T05:43:05.204Z,31.68
2023-06-09T05:45:33.343Z,31.78
2023-06-09T05:48:01.497Z,31.79
2023-06-09T05:50:29.888Z,32.00
2023-06-09T05:52:57.829Z,31.97
2023-06-09T05:55:27.168Z,31.78
2023-06-09T05:57:55.318Z,31.67
2023-06-09T06:00:30.415Z,31.57
2023-06-09T06:03:04.732Z,31.77
2023-06-09T06:05:33.213Z,31.69
2023-06-09T06:08:02.307Z,31.13
2023-06-09T06:10:30.585Z,31.18
2023-06-09T06:13:05.161Z,31.13
2023-06-09T06:15:33.213Z,30.59
2023-06-09T06:18:01.270Z,30.36
2023-06-09T06:20:29.592Z,30.15
2023-06-09T06:22:58.686Z,30.26
2023-06-09T06:25:26.834Z,30.26
2023-06-09T06:27:54.822Z,30.11
2023-06-09T06:30:23.008Z,30.09
2023-06-09T06:32:51.977Z,29.76
2023-06-09T06:35:29.155Z,29.92
2023-06-09T06:37:57.717Z,29.91
2023-06-09T06:40:25.974Z,30.16
2023-06-09T06:42:54.177Z,30.26
2023-06-09T06:45:29.444Z,30.59
2023-06-09T06:47:57.682Z,30.99
2023-06-09T06:50:26.908Z,30.97
2023-06-09T06:52:55.753Z,31.04
2023-06-09T06:55:23.920Z,31.15
2023-06-09T06:57:51.986Z,31.27
2023-06-09T07:00:20.514Z,31.74
2023-06-09T07:02:48.981Z,32.15
2023-06-09T07:05:17.354Z,32.57
2023-06-09T07:07:45.421Z,32.77
2023-06-09T07:10:14.828Z,32.70
2023-06-09T07:12:43.031Z,32.47
2023-06-09T07:15:11.457Z,31.94
2023-06-09T07:17:40.169Z,31.57
2023-06-09T07:20:10.078Z,31.72
2023-06-09T07:22:42.633Z,31.46
2023-06-09T07:25:11.019Z,31.49
2023-06-09T07:27:39.078Z,31.55
2023-06-09T07:30:09.306Z,31.52
2023-06-09T07:32:38.324Z,31.31
2023-06-09T07:35:06.706Z,31.60
2023-06-09T07:37:38.058Z,31.09
2023-06-09T07:40:19.285Z,30.79
2023-06-09T07:42:52.205Z,31.43
2023-06-09T07:45:20.405Z,31.78
2023-06-09T07:47:48.844Z,31.72
2023-06-09T07:50:19.177Z,31.81
2023-06-09T07:52:47.361Z,31.88
2023-06-09T07:55:16.224Z,32.08
2023-06-09T07:57:45.159Z,32.10
2023-06-09T08:00:15.252Z,32.05
2023-06-09T08:02:44.726Z,32.10
2023-06-09T08:05:18.351Z,32.36
2023-06-09T08:07:46.543Z,32.04
2023-06-09T08:10:14.552Z,31.73
2023-06-09T08:12:42.898Z,31.26
2023-06-09T08:15:11.478Z,31.56
2023-06-09T08:17:40.489Z,31.79
2023-06-09T08:20:09.390Z,31.80
2023-06-09T08:22:38.072Z,31.53
2023-06-09T08:25:06.893Z,31.55
2023-06-09T08:27:35.152Z,31.92
2023-06-09T08:30:04.975Z,32.13
2023-06-09T08:32:34.903Z,31.76
2023-06-09T08:35:09.432Z,31.45
2023-06-09T08:37:38.258Z,31.69
2023-06-09T08:40:10.427Z,32.21
2023-06-09T08:42:39.916Z,32.46
2023-06-09T08:45:09.650Z,32.31
2023-06-09T08:47:38.433Z,32.32
2023-06-09T08:50:08.433Z,32.63
2023-06-09T08:52:37.936Z,32.31
2023-06-09T08:55:06.939Z,32.30
2023-06-09T08:57:36.540Z,31.96
2023-06-09T09:00:10.147Z,31.46
2023-06-09T09:02:39.228Z,31.45
2023-06-09T09:05:07.691Z,31.87
2023-06-09T09:07:36.233Z,32.10
2023-06-09T09:10:04.510Z,31.96
2023-06-09T09:12:51.821Z,31.52
2023-06-09T09:15:20.026Z,30.61
2023-06-09T09:17:48.670Z,31.02
2023-06-09T09:20:17.384Z,31.49
2023-06-09T09:22:46.228Z,31.40
2023-06-09T09:25:24.975Z,31.40
2023-06-09T09:28:12.766Z,31.76
2023-06-09T09:30:57.248Z,31.96
2023-06-09T09:33:28.446Z,31.90
2023-06-09T09:35:58.281Z,31.95
2023-06-09T09:38:29.002Z,31.54
2023-06-09T09:40:58.290Z,31.92
2023-06-09T09:43:27.633Z,32.07
2023-06-09T09:45:58.026Z,32.37
2023-06-09T09:48:26.706Z,32.98
2023-06-09T09:50:56.444Z,33.23
2023-06-09T09:53:25.124Z,33.10
2023-06-09T09:55:55.581Z,33.02
2023-06-09T09:58:36.600Z,32.68
2023-06-09T10:01:07.842Z,32.11
2023-06-09T10:03:39.233Z,31.88
2023-06-09T10:06:08.513Z,31.92
2023-06-09T10:08:36.813Z,32.30
2023-06-09T10:11:04.855Z,32.44
2023-06-09T10:13:32.903Z,32.41
2023-06-09T10:16:01.052Z,32.19
2023-06-09T10:18:29.154Z,32.33
2023-06-09T10:20:57.223Z,32.27
2023-06-09T10:23:26.408Z,32.38
2023-06-09T10:25:54.465Z,32.19
2023-06-09T10:28:23.083Z,32.05
2023-06-09T10:30:52.185Z,32.44
2023-06-09T10:33:24.767Z,32.88
2023-06-09T10:35:57.743Z,33.16
2023-06-09T10:38:29.828Z,33.51
2023-06-09T10:41:14.411Z,33.91
2023-06-09T10:44:07.196Z,33.94
2023-06-09T10:46:45.574Z,33.36
2023-06-09T10:49:26.909Z,33.09
2023-06-09T10:51:55.675Z,33.15
2023-06-09T10:54:25.162Z,33.58
2023-06-09T10:57:01.996Z,33.78
2023-06-09T10:59:31.622Z,33.71
2023-06-09T11:02:09.816Z,33.48
2023-06-09T11:04:46.921Z,33.65
2023-06-09T11:07:26.793Z,33.72
2023-06-09T11:09:57.848Z,33.05
2023-06-09T11:12:26.004Z,32.97
2023-06-09T11:15:00.667Z,32.83
2023-06-09T11:17:42.309Z,32.75
2023-06-09T11:20:11.197Z,32.46
2023-06-09T11:22:43.352Z,32.58
2023-06-09T11:25:21.325Z,32.60
2023-06-09T11:27:50.149Z,33.07
2023-06-09T11:30:19.968Z,32.91
2023-06-09T11:32:48.378Z,32.61
2023-06-09T11:35:29.331Z,32.71
2023-06-09T11:37:58.751Z,32.81
2023-06-09T11:40:27.811Z,32.79
2023-06-09T11:42:55.965Z,32.85
2023-06-09T11:45:24.592Z,32.07
2023-06-09T11:48:01.210Z,32.03
2023-06-09T11:50:44.100Z,31.99
2023-06-09T11:53:19.169Z,32.14
2023-06-09T11:55:48.058Z,32.28
2023-06-09T11:58:17.011Z,32.28
2023-06-09T12:00:46.001Z,32.83
2023-06-09T12:03:14.124Z,32.17
2023-06-09T12:05:47.995Z,31.84
2023-06-09T12:08:16.243Z,31.38
2023-06-09T12:10:44.243Z,31.64
2023-06-09T12:13:12.630Z,32.14
2023-06-09T12:15:42.626Z,32.89
2023-06-09T12:18:10.641Z,33.42
2023-06-09T12:20:39.025Z,33.15
2023-06-09T12:23:14.856Z,33.33
2023-06-09T12:25:44.061Z,33.14
2023-06-09T12:28:20.687Z,33.08
2023-06-09T12:30:50.012Z,33.35
2023-06-09T12:33:25.765Z,33.67
2023-06-09T12:36:04.562Z,33.74
2023-06-09T12:38:36.696Z,34.00
2023-06-09T12:41:11.876Z,33.69
2023-06-09T12:43:59.398Z,33.52
2023-06-09T12:46:30.704Z,33.13
2023-06-09T12:49:04.438Z,32.86
2023-06-09T12:51:33.382Z,33.34
2023-06-09T12:54:01.397Z,33.96
2023-06-09T12:56:29.593Z,34.05
2023-06-09T12:58:57.684Z,34.05
2023-06-09T13:01:26.848Z,33.78
2023-06-09T13:03:55.434Z,33.61
2023-06-09T13:06:23.478Z,33.12
2023-06-09T13:08:52.326Z,33.29
2023-06-09T13:11:20.407Z,33.20
2023-06-09T13:13:48.397Z,33.37
2023-06-09T13:16:16.483Z,33.49
2023-06-09T13:18:44.564Z,33.23
2023-06-09T13:21:12.568Z,33.07
2023-06-09T13:23:40.642Z,33.35
2023-06-09T13:26:08.667Z,34.12
2023-06-09T13:28:36.637Z,34.59
2023-06-09T13:31:04.638Z,34.83
2023-06-09T13:33:32.653Z,34.65
2023-06-09T13:36:02.282Z,34.46
2023-06-09T13:38:31.903Z,33.66
2023-06-09T13:41:00.037Z,33.71
2023-06-09T13:43:28.280Z,33.35
2023-06-09T13:45:56.328Z,33.21
2023-06-09T13:48:24.460Z,32.95
2023-06-09T13:50:54.349Z,32.70
2023-06-09T13:53:23.402Z,32.20
2023-06-09T13:55:51.512Z,31.87
2023-06-09T13:58:19.567Z,32.05
2023-06-09T14:00:47.742Z,32.77
2023-06-09T14:03:16.254Z,33.28
2023-06-09T14:05:44.756Z,33.63
2023-06-09T14:08:12.819Z,33.65
2023-06-09T14:10:41.603Z,33.97
2023-06-09T14:13:09.858Z,34.02
2023-06-09T14:15:37.940Z,34.22
2023-06-09T14:18:06.232Z,34.45
2023-06-09T14:20:34.454Z,33.75
2023-06-09T14:23:06.069Z,33.44
2023-06-09T14:25:34.133Z,32.96
2023-06-09T14:28:02.302Z,32.30
2023-06-09T14:30:30.681Z,31.79
2023-06-09T14:32:58.965Z,31.17
2023-06-09T14:35:28.038Z,30.60
2023-06-09T14:38:01.005Z,30.09
2023-06-09T14:40:36.820Z,29.77
2023-06-09T14:43:08.004Z,29.53
2023-06-09T14:45:36.492Z,29.31
2023-06-09T14:48:07.237Z,29.31
2023-06-09T14:50:39.283Z,29.37
2023-06-09T14:53:07.664Z,29.86
2023-06-09T14:55:48.809Z,30.34
2023-06-09T14:58:18.256Z,30.90
2023-06-09T15:00:46.749Z,30.64
2023-06-09T15:03:17.771Z,30.91
2023-06-09T15:05:46.937Z,30.73
2023-06-09T15:08:14.934Z,30.45
2023-06-09T15:10:44.456Z,30.69
2023-06-09T15:13:14.201Z,30.30
2023-06-09T15:15:42.329Z,30.67
2023-06-09T15:18:10.820Z,30.68
2023-06-09T15:20:42.432Z,29.91
2023-06-09T15:23:11.545Z,29.95
2023-06-09T15:25:41.663Z,30.24
2023-06-09T15:28:11.426Z,30.09
2023-06-09T15:30:41.125Z,30.00
2023-06-09T15:33:19.906Z,29.64
2023-06-09T15:35:52.165Z,29.65
2023-06-09T15:38:21.783Z,29.55
2023-06-09T15:40:52.109Z,29.29
2023-06-09T15:43:21.289Z,29.20
2023-06-09T15:45:53.635Z,28.95
2023-06-09T15:48:22.770Z,28.97
2023-06-09T15:50:51.217Z,28.80
2023-06-09T15:53:22.689Z,28.63
2023-06-09T15:55:51.654Z,28.56
2023-06-09T15:58:20.168Z,28.28
2023-06-09T16:00:50.363Z,28.41
2023-06-09T16:03:20.050Z,28.46
2023-06-09T16:05:50.170Z,28.46
2023-06-09T16:08:19.998Z,28.47
2023-06-09T16:10:52.461Z,28.53
2023-06-09T16:13:22.257Z,28.47
2023-06-09T16:15:51.997Z,28.60
2023-06-09T16:18:23.194Z,28.59
2023-06-09T16:20:52.123Z,28.56
2023-06-09T16:23:20.187Z,28.34
2023-06-09T16:25:48.093Z,28.37
2023-06-09T16:28:16.283Z,28.41
2023-06-09T16:30:44.354Z,28.09
2023-06-09T16:33:13.728Z,28.11
2023-06-09T16:35:42.081Z,28.39
2023-06-09T16:38:10.226Z,28.08
2023-06-09T16:40:40.323Z,27.93
2023-06-09T16:43:08.517Z,28.01
2023-06-09T16:45:36.643Z,27.76
2023-06-09T16:48:04.855Z,27.85
2023-06-09T16:50:32.985Z,27.88
2023-06-09T16:53:01.265Z,27.86
2023-06-09T16:55:29.579Z,27.83
2023-06-09T16:57:58.151Z,27.72
2023-06-09T17:00:26.414Z,27.61
2023-06-09T17:02:56.354Z,27.46
2023-06-09T17:05:26.317Z,27.29
2023-06-09T17:07:54.360Z,26.86
2023-06-09T17:10:23.321Z,26.63
2023-06-09T17:12:51.550Z,26.38
2023-06-09T17:15:19.764Z,26.12
2023-06-09T17:17:47.815Z,25.88
2023-06-09T17:20:15.883Z,25.69
2023-06-09T17:22:44.251Z,25.46
2023-06-09T17:25:12.784Z,25.33
2023-06-09T17:27:41.059Z,25.23
2023-06-09T17:30:14.026Z,25.00
2023-06-09T17:32:44.199Z,24.88
2023-06-09T17:35:12.742Z,24.78
2023-06-09T17:37:41.745Z,24.67
2023-06-09T17:40:11.300Z,24.51
2023-06-09T17:42:39.373Z,24.46
2023-06-09T17:45:09.145Z,24.38
2023-06-09T17:47:38.130Z,24.25
2023-06-09T17:50:07.240Z,24.19
2023-06-09T17:52:35.760Z,24.12
2023-06-09T17:55:07.504Z,24.04
2023-06-09T17:57:36.088Z,23.94
2023-06-09T18:00:06.414Z,23.89
2023-06-09T18:02:37.940Z,23.86
2023-06-09T18:05:07.184Z,23.82
2023-06-09T18:07:35.642Z,23.75
2023-06-09T18:10:06.351Z,23.69
2023-06-09T18:12:34.894Z,23.64
2023-06-09T18:15:03.238Z,23.61
2023-06-09T18:17:33.531Z,23.55
2023-06-09T18:20:02.200Z,23.51
2023-06-09T18:22:33.725Z,23.48
2023-06-09T18:25:01.739Z,23.44
2023-06-09T18:27:30.911Z,23.40
2023-06-09T18:29:59.054Z,23.40
2023-06-09T18:32:27.560Z,23.38
2023-06-09T18:34:55.758Z,23.36
2023-06-09T18:37:23.884Z,23.31
2023-06-09T18:39:51.915Z,23.25
2023-06-09T18:42:19.952Z,23.20
2023-06-09T18:44:48.182Z,23.14
2023-06-09T18:47:17.700Z,23.09
2023-06-09T18:49:46.371Z,23.07
2023-06-09T18:52:15.492Z,23.06
2023-06-09T18:54:43.540Z,23.03
2023-06-09T18:57:11.688Z,23.00
2023-06-09T18:59:39.791Z,22.96
2023-06-09T19:02:08.535Z,22.94
2023-06-09T19:04:36.718Z,22.93
2023-06-09T19:07:05.020Z,22.95
2023-06-09T19:09:33.406Z,22.92
2023-06-09T19:12:01.430Z,22.88
2023-06-09T19:14:29.346Z,22.81
2023-06-09T19:16:57.480Z,22.76
2023-06-09T19:19:25.634Z,22.70
2023-06-09T19:21:55.358Z,22.65
2023-06-09T19:24:23.533Z,22.61
2023-06-09T19:26:51.622Z,22.57
2023-06-09T19:29:19.702Z,22.54
2023-06-09T19:31:47.779Z,22.50
2023-06-09T19:34:15.859Z,22.48
2023-06-09T19:36:43.892Z,22.47
2023-06-09T19:39:11.931Z,22.42
2023-06-09T19:41:39.953Z,22.40
2023-06-09T19:44:08.094Z,22.33
2023-06-09T19:46:36.415Z,22.27
2023-06-09T19:49:06.639Z,22.21
2023-06-09T19:51:34.814Z,22.12
2023-06-09T19:54:04.961Z,22.06
2023-06-09T19:56:33.503Z,22.02
2023-06-09T19:59:06.988Z,21.93
2023-06-09T20:01:35.519Z,21.86
2023-06-09T20:04:04.489Z,21.82
2023-06-09T20:06:32.530Z,21.76
2023-06-09T20:09:00.684Z,21.70
2023-06-09T20:11:28.633Z,21.66
2023-06-09T20:13:56.766Z,21.61
2023-06-09T20:16:24.914Z,21.53
2023-06-09T20:18:52.907Z,21.48
2023-06-09T20:21:23.537Z,21.45
2023-06-09T20:23:52.200Z,21.40
2023-06-09T20:26:20.568Z,21.34
2023-06-09T20:28:48.752Z,21.30
2023-06-09T20:31:17.583Z,21.24
2023-06-09T20:33:46.288Z,21.21
2023-06-09T20:36:17.243Z,21.15
2023-06-09T20:38:45.325Z,21.08
2023-06-09T20:41:13.502Z,21.02
2023-06-09T20:43:41.791Z,20.96
2023-06-09T20:46:11.041Z,20.93
2023-06-09T20:48:39.372Z,20.87
2023-06-09T20:51:07.420Z,20.84
2023-06-09T20:53:37.371Z,20.78
2023-06-09T20:56:05.746Z,20.72
2023-06-09T20:58:33.795Z,20.66
2023-06-09T21:01:01.990Z,20.64
2023-06-09T21:03:37.135Z,20.58
2023-06-09T21:06:05.386Z,20.54
2023-06-09T21:08:34.280Z,20.51
2023-06-09T21:11:02.322Z,20.46
2023-06-09T21:13:38.778Z,20.42
2023-06-09T21:16:07.697Z,20.41
2023-06-09T21:18:36.043Z,20.32
2023-06-09T21:21:04.173Z,20.28
2023-06-09T21:23:32.366Z,20.23
2023-06-09T21:26:00.386Z,20.19
2023-06-09T21:28:28.444Z,20.13
2023-06-09T21:31:01.544Z,20.08
2023-06-09T21:33:29.894Z,20.00
2023-06-09T21:35:57.979Z,19.95
2023-06-09T21:38:26.104Z,19.90
2023-06-09T21:40:54.206Z,19.86
2023-06-09T21:43:22.238Z,19.82
2023-06-09T21:45:50.336Z,19.71
2023-06-09T21:48:18.900Z,19.71
2023-06-09T21:50:47.812Z,19.65
2023-06-09T21:53:15.932Z,19.58
2023-06-09T21:55:45.761Z,19.55
2023-06-09T21:58:13.827Z,19.47
2023-06-09T22:00:41.752Z,19.43
2023-06-09T22:03:10.903Z,19.38
2023-06-09T22:05:39.154Z,19.35
2023-06-09T22:08:07.121Z,19.28
2023-06-09T22:10:36.793Z,19.22
2023-06-09T22:13:04.807Z,19.19
2023-06-09T22:15:32.905Z,19.14
2023-06-09T22:18:01.347Z,19.09
2023-06-09T22:20:29.419Z,19.05
2023-06-09T22:22:57.445Z,19.00
2023-06-09T22:25:25.666Z,18.97
2023-06-09T22:27:53.685Z,18.95
2023-06-09T22:30:21.649Z,18.91
2023-06-09T22:32:49.754Z,18.88
2023-06-09T22:35:18.314Z,18.82
2023-06-09T22:37:46.376Z,18.75
2023-06-09T22:40:14.373Z,18.70
2023-06-09T22:42:42.492Z,18.62
2023-06-09T22:45:11.769Z,18.57
2023-06-09T22:47:42.523Z,18.51
2023-06-09T22:50:12.887Z,18.45
2023-06-09T22:52:46.344Z,18.38
2023-06-09T22:55:15.804Z,18.34
2023-06-09T22:57:51.318Z,18.28
2023-06-09T23:00:23.360Z,18.23
2023-06-09T23:02:52.698Z,18.17
2023-06-09T23:05:28.651Z,18.11
2023-06-09T23:07:57.014Z,18.05
2023-06-09T23:10:25.654Z,17.99
2023-06-09T23:12:53.761Z,17.97
2023-06-09T23:15:24.082Z,17.94
2023-06-09T23:17:53.804Z,17.89
2023-06-09T23:20:22.901Z,17.84
2023-06-09T23:22:54.040Z,17.81
2023-06-09T23:25:23.441Z,17.78
2023-06-09T23:27:51.743Z,17.76
2023-06-09T23:30:19.799Z,17.77
2023-06-09T23:32:47.947Z,17.78
2023-06-09T23:35:18.243Z,17.80
2023-06-09T23:37:47.111Z,17.81
2023-06-09T23:40:15.473Z,17.80
2023-06-09T23:42:43.511Z,17.81
2023-06-09T23:45:12.096Z,17.81
2023-06-09T23:47:40.624Z,17.79
2023-06-09T23:50:09.152Z,17.78
2023-06-09T23:52:37.388Z,17.78
2023-06-09T23:55:06.196Z,17.77
2023-06-09T23:57:34.625Z,17.75
